createdAt,value
2022-08-03T00:01:36.721Z,100090.84
2022-08-03T00:04:04.968Z,100090.09
2022-08-03T00:06:36.775Z,100092.09
2022-08-03T00:09:05.150Z,100080.94
2022-08-03T00:11:32.004Z,100077.34
2022-08-03T00:13:58.810Z,100096.34
2022-08-03T00:16:26.503Z,100089.09
2022-08-03T00:18:53.643Z,100078.34
2022-08-03T00:21:20.393Z,100070.66
2022-08-03T00:23:51.936Z,100068.75
2022-08-03T00:26:21.120Z,100068.97
2022-08-03T00:28:48.543Z,100063.28
2022-08-03T00:31:15.451Z,100060.06
2022-08-03T00:33:58.782Z,100075.53
2022-08-03T00:36:27.453Z,100065.38
2022-08-03T00:38:55.081Z,100054.88
2022-08-03T00:41:22.132Z,100059.09
2022-08-03T00:43:49.038Z,100053.59
2022-08-03T00:46:20.786Z,100049.56
2022-08-03T00:48:50.090Z,100046.78
2022-08-03T00:51:17.132Z,100036.94
2022-08-03T00:53:44.035Z,100022.78
2022-08-03T00:56:14.625Z,100014.28
2022-08-03T00:58:43.911Z,100029.47
2022-08-03T01:01:12.476Z,100044.78
2022-08-03T01:03:40.043Z,100035.72
2022-08-03T01:06:19.043Z,100028.50
2022-08-03T01:09:04.666Z,100042.97
2022-08-03T01:12:00.287Z,100042.59
2022-08-03T01:14:58.793Z,100034.72
2022-08-03T01:18:06.077Z,100034.91
2022-08-03T01:20:38.986Z,100033.88
2022-08-03T01:23:29.061Z,100024.78
2022-08-03T01:26:17.563Z,100031.31
2022-08-03T01:29:21.637Z,100027.16
2022-08-03T01:32:58.001Z,99968.44
2022-08-03T01:34:55.515Z,100016.31
2022-08-03T01:37:27.415Z,100005.06
2022-08-03T01:39:58.484Z,100016.78
2022-08-03T01:42:26.274Z,100014.94
2022-08-03T01:44:55.864Z,100025.66
2022-08-03T01:47:26.250Z,100025.66
2022-08-03T01:49:54.599Z,99943.50
2022-08-03T01:52:22.517Z,100018.75
2022-08-03T01:54:51.715Z,100021.78
2022-08-03T01:57:20.193Z,100015.84
2022-08-03T01:59:49.829Z,100030.13
2022-08-03T02:02:32.895Z,100021.16
2022-08-03T02:05:03.519Z,100028.75
2022-08-03T02:07:32.640Z,100019.91
2022-08-03T02:10:01.326Z,100025.25
2022-08-03T02:12:30.121Z,100026.81
2022-08-03T02:14:57.893Z,99993.50
2022-08-03T02:17:39.000Z,99987.72
2022-08-03T02:20:08.796Z,99991.56
2022-08-03T02:22:37.027Z,100005.03
2022-08-03T02:25:04.087Z,100000.25
2022-08-03T02:27:34.683Z,99945.47
2022-08-03T02:30:10.637Z,100007.56
2022-08-03T02:32:40.643Z,100009.56
2022-08-03T02:35:13.405Z,99988.63
2022-08-03T02:37:49.997Z,99991.03
2022-08-03T02:40:19.270Z,100021.16
2022-08-03T02:42:47.608Z,100002.06
2022-08-03T02:45:17.054Z,99994.09
2022-08-03T02:47:54.389Z,99993.34
2022-08-03T02:50:23.286Z,100012.47
2022-08-03T02:52:52.125Z,99996.34
2022-08-03T02:55:21.374Z,100006.41
2022-08-03T02:57:49.165Z,99982.13
2022-08-03T03:00:19.678Z,99999.13
2022-08-03T03:03:00.844Z,99999.41
2022-08-03T03:05:53.146Z,99980.84
2022-08-03T03:08:20.594Z,99977.50
2022-08-03T03:10:53.171Z,100024.34
2022-08-03T03:13:23.226Z,100015.38
2022-08-03T03:15:51.077Z,99993.84
2022-08-03T03:18:22.358Z,100019.28
2022-08-03T03:20:51.777Z,100018.06
2022-08-03T03:23:19.567Z,100008.19
2022-08-03T03:25:47.000Z,100011.88
2022-08-03T03:28:14.744Z,100026.53
2022-08-03T03:30:42.063Z,100009.97
2022-08-03T03:33:08.980Z,100004.88
2022-08-03T03:35:37.212Z,99993.34
2022-08-03T03:38:07.049Z,100025.41
2022-08-03T03:40:36.044Z,100013.94
2022-08-03T03:43:03.664Z,100025.56
2022-08-03T03:45:31.457Z,100026.03
2022-08-03T03:48:01.782Z,100025.47
2022-08-03T03:50:30.235Z,100026.03
2022-08-03T03:52:56.973Z,100015.22
2022-08-03T03:55:24.026Z,99981.53
2022-08-03T03:57:50.892Z,100023.59
2022-08-03T04:00:19.325Z,100004.44
2022-08-03T04:02:46.715Z,100006.19
2022-08-03T04:05:34.100Z,100013.16
2022-08-03T04:08:19.004Z,100022.44
2022-08-03T04:11:27.460Z,100021.34
2022-08-03T04:14:20.401Z,100022.56
2022-08-03T04:16:52.009Z,100013.88
2022-08-03T04:19:27.061Z,100007.28
2022-08-03T04:22:00.458Z,100016.88
2022-08-03T04:24:33.138Z,99986.84
2022-08-03T04:27:02.941Z,99997.84
2022-08-03T04:29:31.474Z,100020.78
2022-08-03T04:32:00.788Z,100021.88
2022-08-03T04:34:29.897Z,100031.56
2022-08-03T04:37:00.748Z,100022.16
2022-08-03T04:39:31.335Z,100027.66
2022-08-03T04:42:07.848Z,100009.97
2022-08-03T04:44:42.952Z,100030.66
2022-08-03T04:47:09.986Z,100034.09
2022-08-03T04:49:38.542Z,100034.47
2022-08-03T04:52:08.905Z,100036.56
2022-08-03T04:54:48.843Z,100031.63
2022-08-03T04:57:23.211Z,100034.75
2022-08-03T05:00:02.594Z,100031.91
2022-08-03T05:02:31.413Z,100033.66
2022-08-03T05:04:58.721Z,100037.84
2022-08-03T05:07:25.586Z,100036.19
2022-08-03T05:09:57.540Z,100029.75
2022-08-03T05:12:32.568Z,100042.19
2022-08-03T05:15:00.540Z,100013.34
2022-08-03T05:17:28.471Z,100035.97
2022-08-03T05:19:55.880Z,100014.53
2022-08-03T05:22:23.481Z,100037.59
2022-08-03T05:24:50.427Z,100037.25
2022-08-03T05:27:20.221Z,100023.63
2022-08-03T05:29:47.435Z,100038.94
2022-08-03T05:32:14.543Z,100044.41
2022-08-03T05:34:41.643Z,100051.81
2022-08-03T05:37:09.586Z,100053.19
2022-08-03T05:39:36.507Z,100046.22
2022-08-03T05:42:03.458Z,100005.81
2022-08-03T05:44:31.993Z,100052.81
2022-08-03T05:46:59.543Z,100045.94
2022-08-03T05:49:26.456Z,100061.06
2022-08-03T05:52:07.974Z,100056.22
2022-08-03T05:54:56.170Z,100058.25
2022-08-03T05:57:25.447Z,100044.03
2022-08-03T05:59:53.929Z,100053.84
2022-08-03T06:02:26.165Z,100052.06
2022-08-03T06:04:53.056Z,100066.09
2022-08-03T06:07:19.885Z,100069.75
2022-08-03T06:10:37.490Z,100051.25
2022-08-03T06:12:36.328Z,100052.22
2022-08-03T06:15:05.401Z,100061.59
2022-08-03T06:17:37.359Z,100073.06
2022-08-03T06:20:05.905Z,100075.44
2022-08-03T06:22:32.649Z,100080.97
2022-08-03T06:25:04.024Z,100083.28
2022-08-03T06:27:37.306Z,100064.75
2022-08-03T06:30:05.495Z,100076.91
2022-08-03T06:32:32.503Z,100095.66
2022-08-03T06:34:59.772Z,100090.47
2022-08-03T06:37:27.282Z,100095.81
2022-08-03T06:39:54.480Z,100107.63
2022-08-03T06:42:22.677Z,100102.31
2022-08-03T06:44:49.789Z,100087.41
2022-08-03T06:47:16.607Z,100101.34
2022-08-03T06:49:43.724Z,100103.16
2022-08-03T06:52:38.083Z,100105.91
2022-08-03T06:55:06.226Z,100096.31
2022-08-03T06:57:33.397Z,100106.03
2022-08-03T07:00:09.789Z,100100.25
2022-08-03T07:02:38.733Z,100057.00
2022-08-03T07:05:06.356Z,100099.38
2022-08-03T07:07:33.138Z,100108.38
2022-08-03T07:09:59.998Z,100054.16
2022-08-03T07:12:30.106Z,100084.09
2022-08-03T07:15:01.371Z,100068.38
2022-08-03T07:17:31.142Z,100078.59
2022-08-03T07:19:58.402Z,100078.81
2022-08-03T07:22:25.339Z,100087.13
2022-08-03T07:24:52.194Z,100091.59
2022-08-03T07:27:19.014Z,100092.22
2022-08-03T07:29:45.792Z,100085.09
2022-08-03T07:32:12.633Z,100085.59
2022-08-03T07:34:39.368Z,100100.16
2022-08-03T07:37:06.238Z,100090.94
2022-08-03T07:39:33.053Z,100092.50
2022-08-03T07:41:59.836Z,100103.31
2022-08-03T07:44:26.602Z,100100.06
2022-08-03T07:46:53.539Z,100042.69
2022-08-03T07:49:20.526Z,100076.47
2022-08-03T07:52:07.918Z,100084.88
2022-08-03T07:54:34.679Z,100106.03
2022-08-03T07:57:01.498Z,100109.47
2022-08-03T07:59:28.462Z,100112.41
2022-08-03T08:02:15.385Z,100080.69
2022-08-03T08:04:42.456Z,100130.66
2022-08-03T08:07:09.305Z,100088.94
2022-08-03T08:09:36.254Z,100125.56
2022-08-03T08:12:03.387Z,100126.06
2022-08-03T08:14:42.701Z,100107.09
2022-08-03T08:17:09.496Z,100125.31
2022-08-03T08:19:37.514Z,100107.69
2022-08-03T08:22:10.638Z,100111.69
2022-08-03T08:24:38.338Z,100106.34
2022-08-03T08:27:06.310Z,100103.56
2022-08-03T08:29:33.757Z,100114.06
2022-08-03T08:32:01.628Z,100089.72
2022-08-03T08:34:28.420Z,100112.81
2022-08-03T08:37:02.382Z,100052.63
2022-08-03T08:39:29.136Z,100119.13
2022-08-03T08:41:55.905Z,100110.63
2022-08-03T08:44:22.793Z,100111.69
2022-08-03T08:46:50.839Z,100100.00
2022-08-03T08:49:21.354Z,100117.09
2022-08-03T08:52:00.429Z,100124.06
2022-08-03T08:54:29.784Z,100086.69
2022-08-03T08:57:01.493Z,100108.53
2022-08-03T08:59:48.028Z,100122.63
2022-08-03T09:02:15.834Z,100117.25
2022-08-03T09:04:43.066Z,100129.09
2022-08-03T09:07:19.619Z,100139.59
2022-08-03T09:10:12.013Z,100134.03
2022-08-03T09:12:44.075Z,100140.28
2022-08-03T09:15:31.563Z,100136.75
2022-08-03T09:18:03.075Z,100146.25
2022-08-03T09:20:32.845Z,100144.81
2022-08-03T09:23:26.235Z,100147.66
2022-08-03T09:26:00.079Z,100145.94
2022-08-03T09:29:00.435Z,100137.69
2022-08-03T09:31:36.639Z,100116.66
2022-08-03T09:34:14.355Z,100143.94
2022-08-03T09:36:45.102Z,100142.66
2022-08-03T09:39:15.103Z,100124.00
2022-08-03T09:41:48.586Z,100147.53
2022-08-03T09:44:25.770Z,100153.09
2022-08-03T09:46:56.449Z,100148.88
2022-08-03T09:49:24.952Z,100150.47
2022-08-03T09:52:32.045Z,100151.28
2022-08-03T09:54:40.369Z,100153.50
2022-08-03T09:57:07.190Z,100157.03
2022-08-03T09:59:34.613Z,100140.13
2022-08-03T10:02:02.106Z,100148.88
2022-08-03T10:04:29.228Z,100156.53
2022-08-03T10:07:04.151Z,100156.00
2022-08-03T10:09:31.065Z,100153.91
2022-08-03T10:12:00.052Z,100160.13
2022-08-03T10:14:30.553Z,100160.13
2022-08-03T10:16:57.305Z,100161.28
2022-08-03T10:19:25.736Z,100156.41
2022-08-03T10:21:58.130Z,100138.41
2022-08-03T10:24:27.417Z,100152.97
2022-08-03T10:27:01.589Z,100133.38
2022-08-03T10:29:29.697Z,100152.59
2022-08-03T10:31:59.104Z,100157.47
2022-08-03T10:34:35.637Z,100149.44
2022-08-03T10:37:08.514Z,100161.91
2022-08-03T10:39:36.432Z,100149.97
2022-08-03T10:42:05.778Z,100163.88
2022-08-03T10:44:42.853Z,100157.09
2022-08-03T10:47:10.680Z,100159.31
2022-08-03T10:49:38.367Z,100152.22
2022-08-03T10:52:13.865Z,100148.38
2022-08-03T10:55:11.394Z,100169.16
2022-08-03T10:57:46.528Z,100163.47
2022-08-03T11:00:21.193Z,100143.31
2022-08-03T11:03:14.782Z,100169.25
2022-08-03T11:05:41.501Z,100167.81
2022-08-03T11:08:29.031Z,100166.03
2022-08-03T11:10:58.755Z,100162.19
2022-08-03T11:13:28.400Z,100164.91
2022-08-03T11:16:01.610Z,100160.28
2022-08-03T11:18:30.297Z,100169.09
2022-08-03T11:20:59.872Z,100159.38
2022-08-03T11:24:02.688Z,100167.31
2022-08-03T11:26:34.137Z,100153.19
2022-08-03T11:29:31.950Z,100173.00
2022-08-03T11:31:59.111Z,100162.31
2022-08-03T11:34:26.751Z,100169.16
2022-08-03T11:37:24.090Z,100175.78
2022-08-03T11:39:55.058Z,100184.88
2022-08-03T11:42:24.919Z,100178.06
2022-08-03T11:44:53.603Z,100157.44
2022-08-03T11:47:26.061Z,100175.09
2022-08-03T11:49:57.589Z,100169.09
2022-08-03T11:52:27.110Z,100172.69
2022-08-03T11:54:57.069Z,100153.41
2022-08-03T11:59:19.290Z,100172.50
2022-08-03T12:00:40.748Z,100165.78
2022-08-03T12:03:11.964Z,100161.78
2022-08-03T12:05:51.297Z,100152.28
2022-08-03T12:08:39.744Z,100158.81
2022-08-03T12:11:09.378Z,100150.19
2022-08-03T12:13:56.670Z,100154.47
2022-08-03T12:16:37.186Z,100155.13
2022-08-03T12:19:07.006Z,100151.69
2022-08-03T12:21:34.073Z,100155.97
2022-08-03T12:24:03.488Z,100149.91
2022-08-03T12:26:43.534Z,100140.59
2022-08-03T12:29:18.537Z,100153.56
2022-08-03T12:31:45.747Z,100162.69
2022-08-03T12:34:13.755Z,100158.16
2022-08-03T12:36:56.285Z,100158.44
2022-08-03T12:39:25.066Z,100143.03
2022-08-03T12:41:55.775Z,100166.84
2022-08-03T12:44:36.435Z,100154.63
2022-08-03T12:47:04.646Z,100150.38
2022-08-03T12:49:46.361Z,100158.94
2022-08-03T12:52:13.356Z,100154.94
2022-08-03T12:54:40.177Z,100157.84
2022-08-03T12:57:15.706Z,100154.19
2022-08-03T12:59:53.448Z,100150.47
2022-08-03T13:02:26.258Z,100111.84
2022-08-03T13:04:54.834Z,100157.75
2022-08-03T13:07:22.973Z,100163.09
2022-08-03T13:09:55.006Z,100166.25
2022-08-03T13:12:30.037Z,100143.31
2022-08-03T13:14:59.557Z,100160.16
2022-08-03T13:17:26.970Z,100157.78
2022-08-03T13:19:53.869Z,100145.50
2022-08-03T13:22:30.459Z,100138.25
2022-08-03T13:24:57.805Z,100157.75
2022-08-03T13:28:03.188Z,100156.56
2022-08-03T13:30:13.007Z,100155.63
2022-08-03T13:32:39.850Z,100157.66
2022-08-03T13:35:08.016Z,100136.41
2022-08-03T13:37:36.130Z,100125.19
2022-08-03T13:40:06.602Z,100151.28
2022-08-03T13:42:34.966Z,100144.97
2022-08-03T13:45:02.986Z,100149.13
2022-08-03T13:47:30.039Z,100126.69
2022-08-03T13:50:01.151Z,100137.63
2022-08-03T13:52:38.644Z,100123.94
2022-08-03T13:55:07.067Z,100128.19
2022-08-03T13:58:03.079Z,100117.53
2022-08-03T14:00:29.302Z,100124.22
2022-08-03T14:03:03.986Z,100115.31
2022-08-03T14:05:33.168Z,100125.28
2022-08-03T14:08:05.896Z,100113.00
2022-08-03T14:10:37.845Z,100106.78
2022-08-03T14:13:05.235Z,100113.25
2022-08-03T14:15:37.424Z,100103.84
2022-08-03T14:18:05.118Z,100109.78
2022-08-03T14:20:38.897Z,100092.03
2022-08-03T14:23:17.976Z,100102.63
2022-08-03T14:25:51.629Z,100100.50
2022-08-03T14:28:23.323Z,100085.72
2022-08-03T14:30:57.285Z,100079.53
2022-08-03T14:33:25.023Z,100076.66
2022-08-03T14:35:52.478Z,100075.34
2022-08-03T14:38:19.325Z,100068.25
2022-08-03T14:40:46.795Z,100070.72
2022-08-03T14:43:14.037Z,100070.31
2022-08-03T14:45:41.362Z,100035.84
2022-08-03T14:50:26.547Z,100076.78
2022-08-03T14:50:56.895Z,100072.19
2022-08-03T14:53:24.580Z,100071.78
2022-08-03T14:55:52.956Z,100060.91
2022-08-03T14:58:22.051Z,100068.63
2022-08-03T15:00:50.830Z,100058.06
2022-08-03T15:03:21.638Z,100064.63
2022-08-03T15:05:48.570Z,100062.97
2022-08-03T15:08:15.770Z,100062.97
2022-08-03T15:10:44.860Z,100058.50
2022-08-03T15:13:13.247Z,100049.91
2022-08-03T15:15:41.132Z,100020.84
2022-08-03T15:18:08.189Z,100044.47
2022-08-03T15:20:50.773Z,100042.06
2022-08-03T15:23:18.837Z,100013.59
2022-08-03T15:26:29.292Z,100043.84
2022-08-03T15:28:33.898Z,100007.22
2022-08-03T15:31:01.885Z,100040.44
2022-08-03T15:33:29.458Z,100019.09
2022-08-03T15:35:57.193Z,100014.97
2022-08-03T15:38:25.830Z,100017.13
2022-08-03T15:40:57.147Z,100037.63
2022-08-03T15:43:24.259Z,100031.09
2022-08-03T15:46:19.167Z,100026.47
2022-08-03T15:48:38.876Z,100029.31
2022-08-03T15:51:06.254Z,100029.75
2022-08-03T15:53:33.810Z,100022.63
2022-08-03T15:56:03.354Z,100037.75
2022-08-03T15:59:03.690Z,100017.72
2022-08-03T16:01:21.552Z,100034.13
2022-08-03T16:03:48.804Z,100030.00
2022-08-03T16:06:16.035Z,100017.16
2022-08-03T16:08:42.886Z,100018.28
2022-08-03T16:11:09.890Z,99999.03
2022-08-03T16:14:13.096Z,100011.81
2022-08-03T16:16:23.692Z,100031.88
2022-08-03T16:18:50.524Z,100005.06
2022-08-03T16:21:19.340Z,100028.03
2022-08-03T16:23:47.416Z,100024.66
2022-08-03T16:26:14.817Z,100032.75
2022-08-03T16:28:41.658Z,100030.25
2022-08-03T16:31:09.325Z,100022.84
2022-08-03T16:33:36.616Z,100018.50
2022-08-03T16:36:03.763Z,100020.13
2022-08-03T16:38:30.774Z,100026.28
2022-08-03T16:40:57.570Z,100007.03
2022-08-03T16:43:24.923Z,99988.28
2022-08-03T16:45:52.179Z,100021.56
2022-08-03T16:48:19.918Z,100012.66
2022-08-03T16:50:47.508Z,99995.78
2022-08-03T16:53:16.552Z,100021.66
2022-08-03T16:55:53.193Z,99984.66
2022-08-03T16:58:41.344Z,100018.28
2022-08-03T17:01:21.600Z,100018.34
2022-08-03T17:04:01.972Z,100011.81
2022-08-03T17:06:35.014Z,100014.34
2022-08-03T17:09:08.834Z,99959.28
2022-08-03T17:11:39.036Z,100008.56
2022-08-03T17:14:12.112Z,100007.44
2022-08-03T17:16:39.160Z,99953.56
2022-08-03T17:19:20.520Z,100011.06
2022-08-03T17:21:55.888Z,99985.53
2022-08-03T17:24:27.839Z,100017.50
2022-08-03T17:26:56.034Z,100013.38
2022-08-03T17:29:25.192Z,100006.78
2022-08-03T17:31:56.874Z,100007.03
2022-08-03T17:34:26.495Z,100008.31
2022-08-03T17:37:17.794Z,99979.97
2022-08-03T17:39:58.225Z,100003.41
2022-08-03T17:42:30.598Z,99995.59
2022-08-03T17:45:02.296Z,99988.50
2022-08-03T17:47:41.921Z,100004.91
2022-08-03T17:50:25.302Z,99968.00
2022-08-03T17:53:01.322Z,99988.56
2022-08-03T17:55:57.371Z,99981.50
2022-08-03T17:58:54.949Z,99987.50
2022-08-03T18:02:06.094Z,99992.47
2022-08-03T18:04:42.372Z,99987.53
2022-08-03T18:07:12.905Z,99976.03
2022-08-03T18:10:04.987Z,99998.28
2022-08-03T18:12:51.895Z,99980.25
2022-08-03T18:15:26.594Z,99992.59
2022-08-03T18:18:01.989Z,99994.22
2022-08-03T18:20:40.594Z,99974.59
2022-08-03T18:23:10.395Z,99979.13
2022-08-03T18:25:45.645Z,99970.84
2022-08-03T18:28:16.449Z,99989.31
2022-08-03T18:30:54.744Z,99982.75
2022-08-03T18:34:16.703Z,99952.91
2022-08-03T18:36:29.465Z,99963.91
2022-08-03T18:38:58.629Z,99986.06
2022-08-03T18:41:33.323Z,100004.47
2022-08-03T18:44:08.265Z,99974.00
2022-08-03T18:46:50.012Z,100009.44
2022-08-03T18:49:46.872Z,99991.41
2022-08-03T18:52:40.221Z,99996.34
2022-08-03T18:55:20.280Z,99995.75
2022-08-03T18:58:15.901Z,99991.81
2022-08-03T19:04:05.233Z,99977.16
2022-08-03T19:06:36.181Z,100003.38
2022-08-03T19:09:09.517Z,99997.22
2022-08-03T19:12:13.105Z,100007.34
2022-08-03T19:15:00.301Z,100004.38
2022-08-03T19:17:33.572Z,99994.34
2022-08-03T19:20:05.951Z,99972.03
2022-08-03T19:22:34.440Z,100000.81
2022-08-03T19:25:04.567Z,99992.72
2022-08-03T19:27:35.453Z,100001.25
2022-08-03T19:30:20.010Z,100003.59
2022-08-03T19:32:54.159Z,99987.97
2022-08-03T19:35:46.667Z,100012.50
2022-08-03T19:38:09.150Z,99964.53
2022-08-03T19:40:42.080Z,100005.50
2022-08-03T19:43:26.637Z,100004.63
2022-08-03T19:46:08.193Z,99976.75
2022-08-03T19:48:37.778Z,100022.13
2022-08-03T19:51:12.425Z,100009.53
2022-08-03T19:53:43.183Z,100000.84
2022-08-03T19:56:14.425Z,100023.63
2022-08-03T19:58:43.385Z,100016.28
2022-08-03T20:01:19.685Z,99995.75
2022-08-03T20:03:49.730Z,99996.66
2022-08-03T20:06:17.781Z,99978.09
2022-08-03T20:08:44.946Z,100011.94
2022-08-03T20:11:15.679Z,100002.34
2022-08-03T20:13:48.358Z,99976.03
2022-08-03T20:16:15.209Z,100023.47
2022-08-03T20:18:42.920Z,100018.75
2022-08-03T20:21:15.677Z,100003.00
2022-08-03T20:24:01.630Z,100023.22
2022-08-03T20:26:31.220Z,99956.81
2022-08-03T20:29:09.077Z,100022.50
2022-08-03T20:31:37.799Z,100018.66
2022-08-03T20:34:06.408Z,100020.69
2022-08-03T20:36:33.265Z,100033.22
2022-08-03T20:39:00.206Z,100032.53
2022-08-03T20:41:27.132Z,100049.75
2022-08-03T20:43:54.515Z,99999.56
2022-08-03T20:46:35.302Z,100040.66
2022-08-03T20:49:08.653Z,100053.59
2022-08-03T20:51:49.045Z,100037.00
2022-08-03T20:54:28.790Z,100045.72
2022-08-03T20:56:58.315Z,100046.44
2022-08-03T20:59:36.928Z,100042.88
2022-08-03T21:02:19.244Z,100055.81
2022-08-03T21:04:47.437Z,100059.47
2022-08-03T21:07:22.956Z,100040.75
2022-08-03T21:09:57.163Z,100022.66
2022-08-03T21:12:54.426Z,100042.91
2022-08-03T21:13:01.160Z,99993.31
2022-08-03T21:16:06.919Z,100059.28
2022-08-03T21:18:18.386Z,100056.25
2022-08-03T21:20:46.587Z,100060.31
2022-08-03T21:23:40.285Z,100059.09
2022-08-03T21:26:01.290Z,100070.66
2022-08-03T21:28:28.222Z,100082.28
2022-08-03T21:30:55.068Z,100061.66
2022-08-03T21:33:26.809Z,100070.44
2022-08-03T21:35:53.911Z,100074.00
2022-08-03T21:38:20.961Z,100070.53
2022-08-03T21:40:57.995Z,100077.41
2022-08-03T21:43:24.757Z,100041.13
2022-08-03T21:46:12.299Z,100067.75
2022-08-03T21:48:41.554Z,100076.53
2022-08-03T21:51:12.348Z,100022.38
2022-08-03T21:54:03.257Z,100076.31
2022-08-03T21:56:30.696Z,100089.03
2022-08-03T21:59:04.789Z,100082.03
2022-08-03T22:01:35.552Z,100055.50
2022-08-03T22:04:07.080Z,100070.97
2022-08-03T22:06:35.072Z,100072.00
2022-08-03T22:09:01.917Z,100054.41
2022-08-03T22:11:29.359Z,100048.50
2022-08-03T22:13:56.193Z,100062.22
2022-08-03T22:16:23.206Z,100057.69
2022-08-03T22:18:49.998Z,100074.25
2022-08-03T22:21:27.783Z,100055.84
2022-08-03T22:24:06.131Z,100069.75
2022-08-03T22:26:35.882Z,100077.81
2022-08-03T22:29:08.062Z,100071.06
2022-08-03T22:31:57.996Z,100072.16
2022-08-03T22:34:26.767Z,100070.63
2022-08-03T22:37:01.009Z,100051.63
2022-08-03T22:39:29.481Z,100068.03
2022-08-03T22:42:00.165Z,100079.25
2022-08-03T22:44:27.908Z,100068.22
2022-08-03T22:46:55.803Z,100080.47
2022-08-03T22:49:23.122Z,100044.22
2022-08-03T22:51:52.428Z,100079.19
2022-08-03T22:54:19.744Z,100061.56
2022-08-03T22:56:47.301Z,100073.13
2022-08-03T22:59:40.048Z,100065.34
2022-08-03T23:02:15.164Z,100068.97
2022-08-03T23:04:55.360Z,100072.84
2022-08-03T23:07:30.509Z,100071.69
2022-08-03T23:09:58.639Z,100075.69
2022-08-03T23:12:25.528Z,100067.19
2022-08-03T23:14:55.565Z,100040.97
2022-08-03T23:17:23.976Z,100079.09
2022-08-03T23:19:52.865Z,100076.84
2022-08-03T23:22:30.370Z,100074.72
2022-08-03T23:24:59.084Z,100038.88
2022-08-03T23:27:28.016Z,100060.81
2022-08-03T23:29:58.379Z,100045.84
2022-08-03T23:32:30.709Z,100036.50
2022-08-03T23:35:19.186Z,100068.44
2022-08-03T23:38:04.257Z,100071.63
2022-08-03T23:40:34.923Z,100066.16
2022-08-03T23:43:02.781Z,100075.44
2022-08-03T23:45:34.679Z,100048.97
2022-08-03T23:48:01.503Z,100072.03
2022-08-03T23:50:35.217Z,100041.22
2022-08-03T23:53:39.903Z,100054.81
2022-08-03T23:56:19.676Z,100065.91
2022-08-03T23:59:27.905Z,100039.72
